createdAt,value
2018-09-01T00:00:37.349Z,13.70
2018-09-01T00:01:37.244Z,13.68
2018-09-01T00:02:37.141Z,13.71
2018-09-01T00:03:37.050Z,13.62
2018-09-01T00:04:36.950Z,13.65
2018-09-01T00:05:36.846Z,13.68
2018-09-01T00:06:36.753Z,13.68
2018-09-01T00:07:36.656Z,13.60
2018-09-01T00:08:36.550Z,13.72
2018-09-01T00:09:36.450Z,13.67
2018-09-01T00:10:36.355Z,13.60
2018-09-01T00:11:36.255Z,13.60
2018-09-01T00:12:36.155Z,13.47
2018-09-01T00:13:36.052Z,13.62
2018-09-01T00:14:35.953Z,13.47
2018-09-01T00:15:35.852Z,13.60
2018-09-01T00:16:35.756Z,13.50
2018-09-01T00:17:35.653Z,13.49
2018-09-01T00:18:35.552Z,13.59
2018-09-01T00:19:35.474Z,13.56
2018-09-01T00:20:35.360Z,13.59
2018-09-01T00:21:35.258Z,13.54
2018-09-01T00:22:35.161Z,13.54
2018-09-01T00:23:35.057Z,13.47
2018-09-01T00:24:34.958Z,13.44
2018-09-01T00:25:34.856Z,13.49
2018-09-01T00:26:34.769Z,13.47
2018-09-01T00:27:34.662Z,13.50
2018-09-01T00:28:34.569Z,13.53
2018-09-01T00:29:34.465Z,13.50
2018-09-01T00:30:34.390Z,13.50
2018-09-01T00:31:34.259Z,13.52
2018-09-01T00:32:34.176Z,13.52
2018-09-01T00:33:34.069Z,13.52
2018-09-01T00:34:33.963Z,13.59
2018-09-01T00:35:33.860Z,13.49
2018-09-01T00:36:33.767Z,13.37
2018-09-01T00:37:33.662Z,13.37
2018-09-01T00:38:33.565Z,13.28
2018-09-01T00:39:33.473Z,13.22
2018-09-01T00:40:33.366Z,13.27
2018-09-01T00:41:33.262Z,13.13
2018-09-01T00:42:33.158Z,13.19
2018-09-01T00:43:33.068Z,13.30
2018-09-01T00:44:32.968Z,13.12
2018-09-01T00:45:32.865Z,13.18
2018-09-01T00:46:32.768Z,13.16
2018-09-01T00:47:32.668Z,13.13
2018-09-01T00:48:32.566Z,13.18
2018-09-01T00:49:32.463Z,13.05
2018-09-01T00:50:32.375Z,13.00
2018-09-01T00:51:32.271Z,13.01
2018-09-01T00:52:32.163Z,12.97
2018-09-01T00:53:32.072Z,12.90
2018-09-01T00:54:31.970Z,12.95
2018-09-01T00:55:31.868Z,12.98
2018-09-01T00:56:31.762Z,12.95
2018-09-01T00:57:31.920Z,12.97
2018-09-01T00:58:31.569Z,13.04
2018-09-01T00:59:31.465Z,13.08
2018-09-01T01:00:31.380Z,13.03
2018-09-01T01:01:31.276Z,13.03
2018-09-01T01:02:31.168Z,13.09
2018-09-01T01:03:31.066Z,13.12
2018-09-01T01:04:30.978Z,13.09
2018-09-01T01:05:30.875Z,13.04
2018-09-01T01:06:30.770Z,13.03
2018-09-01T01:07:30.680Z,13.00
2018-09-01T01:08:30.571Z,13.00
2018-09-01T01:09:30.467Z,12.97
2018-09-01T01:10:30.374Z,12.94
2018-09-01T01:11:30.281Z,12.95
2018-09-01T01:12:30.175Z,12.93
2018-09-01T01:13:30.070Z,12.97
2018-09-01T01:14:29.976Z,12.94
2018-09-01T01:15:29.866Z,12.90
2018-09-01T01:16:29.775Z,12.90
2018-09-01T01:17:29.686Z,12.79
2018-09-01T01:18:29.576Z,12.80
2018-09-01T01:19:29.473Z,12.75
2018-09-01T01:20:29.373Z,12.65
2018-09-01T01:21:29.282Z,12.58
2018-09-01T01:22:29.180Z,12.68
2018-09-01T01:23:29.077Z,12.75
2018-09-01T01:24:28.971Z,12.72
2018-09-01T01:25:28.884Z,12.72
2018-09-01T01:26:28.779Z,12.75
2018-09-01T01:27:28.675Z,12.78
2018-09-01T01:28:28.580Z,12.68
2018-09-01T01:29:28.477Z,12.68
2018-09-01T01:30:28.371Z,12.58
2018-09-01T01:31:28.272Z,12.54
2018-09-01T01:32:28.185Z,12.60
2018-09-01T01:33:28.082Z,12.50
2018-09-01T01:34:27.974Z,12.55
2018-09-01T01:35:27.870Z,12.53
2018-09-01T01:36:27.782Z,12.45
2018-09-01T01:37:27.679Z,12.36
2018-09-01T01:38:27.600Z,12.36
2018-09-01T01:39:27.476Z,12.45
2018-09-01T01:40:27.381Z,12.39
2018-09-01T01:41:27.278Z,12.42
2018-09-01T01:42:27.175Z,12.32
2018-09-01T01:43:27.084Z,12.31
2018-09-01T01:44:26.977Z,12.35
2018-09-01T01:45:26.868Z,12.28
2018-09-01T01:46:26.773Z,12.24
2018-09-01T01:47:26.682Z,12.24
2018-09-01T01:48:26.583Z,12.20
2018-09-01T01:49:26.515Z,12.31
2018-09-01T01:50:26.372Z,12.22
2018-09-01T01:51:26.285Z,12.17
2018-09-01T01:52:26.181Z,12.17
2018-09-01T01:53:26.078Z,12.20
2018-09-01T01:54:25.973Z,12.17
2018-09-01T01:55:25.871Z,12.24
2018-09-01T01:56:25.777Z,12.09
2018-09-01T01:57:25.674Z,12.09
2018-09-01T01:58:25.575Z,12.07
2018-09-01T01:59:25.475Z,11.97
2018-09-01T02:00:25.376Z,12.10
2018-09-01T02:01:25.273Z,12.02
2018-09-01T02:02:25.168Z,12.03
2018-09-01T02:03:25.064Z,12.12
2018-09-01T02:04:24.978Z,12.02
2018-09-01T02:05:24.875Z,12.04
2018-09-01T02:06:24.770Z,11.97
2018-09-01T02:07:24.664Z,11.90
2018-09-01T02:08:24.576Z,11.97
2018-09-01T02:09:24.487Z,11.94
2018-09-01T02:10:24.372Z,11.87
2018-09-01T02:11:24.268Z,11.91
2018-09-01T02:12:24.161Z,11.88
2018-09-01T02:13:24.075Z,11.91
2018-09-01T02:14:23.970Z,11.81
2018-09-01T02:15:23.867Z,11.75
2018-09-01T02:16:23.759Z,11.80
2018-09-01T02:17:23.656Z,11.81
2018-09-01T02:18:23.566Z,11.81
2018-09-01T02:19:23.463Z,11.77
2018-09-01T02:20:23.365Z,11.75
2018-09-01T02:21:23.261Z,11.72
2018-09-01T02:22:23.155Z,11.62
2018-09-01T02:23:23.062Z,11.63
2018-09-01T02:24:22.964Z,11.57
2018-09-01T02:25:22.860Z,11.50
2018-09-01T02:26:22.755Z,11.52
2018-09-01T02:27:22.663Z,11.52
2018-09-01T02:28:22.556Z,11.43
2018-09-01T02:29:22.452Z,11.44
2018-09-01T02:30:22.369Z,11.45
2018-09-01T02:31:22.252Z,11.43
2018-09-01T02:32:22.162Z,11.36
2018-09-01T02:33:22.058Z,11.43
2018-09-01T02:34:21.949Z,11.33
2018-09-01T02:35:21.846Z,11.41
2018-09-01T02:36:21.748Z,11.40
2018-09-01T02:37:21.905Z,11.40
2018-09-01T02:38:21.564Z,11.33
2018-09-01T02:39:21.448Z,11.26
2018-09-01T02:40:21.341Z,11.41
2018-09-01T02:41:21.238Z,11.36
2018-09-01T02:42:21.150Z,11.29
2018-09-01T02:43:21.047Z,11.27
2018-09-01T02:44:20.948Z,11.36
2018-09-01T02:45:20.847Z,11.33
2018-09-01T02:46:20.735Z,11.30
2018-09-01T02:47:20.643Z,11.27
2018-09-01T02:48:20.545Z,11.30
2018-09-01T02:49:20.443Z,11.37
2018-09-01T02:50:20.342Z,11.27
2018-09-01T02:51:20.239Z,11.32
2018-09-01T02:52:20.134Z,11.30
2018-09-01T02:53:20.038Z,11.33
2018-09-01T02:54:19.939Z,11.23
2018-09-01T02:55:19.836Z,11.22
2018-09-01T02:56:19.729Z,11.18
2018-09-01T02:57:19.625Z,11.29
2018-09-01T02:58:19.535Z,11.22
2018-09-01T02:59:19.428Z,11.26
2018-09-01T03:00:19.350Z,11.23
2018-09-01T03:01:19.226Z,11.14
2018-09-01T03:02:19.123Z,11.25
2018-09-01T03:03:19.022Z,11.14
2018-09-01T03:04:18.932Z,11.18
2018-09-01T03:05:18.828Z,11.12
2018-09-01T03:06:18.723Z,11.10
2018-09-01T03:07:18.619Z,11.11
2018-09-01T03:08:18.511Z,11.10
2018-09-01T03:09:18.420Z,10.97
2018-09-01T03:10:18.321Z,10.94
2018-09-01T03:11:18.218Z,10.97
2018-09-01T03:12:18.133Z,10.87
2018-09-01T03:13:18.007Z,10.87
2018-09-01T03:14:17.907Z,10.93
2018-09-01T03:15:17.815Z,10.92
2018-09-01T03:16:17.717Z,10.87
2018-09-01T03:17:17.914Z,10.94
2018-09-01T03:18:17.503Z,10.93
2018-09-01T03:19:17.407Z,10.93
2018-09-01T03:20:17.313Z,10.92
2018-09-01T03:21:17.210Z,10.90
2018-09-01T03:22:17.109Z,10.94
2018-09-01T03:23:17.006Z,10.97
2018-09-01T03:24:16.898Z,10.97
2018-09-01T03:25:16.795Z,10.89
2018-09-01T03:26:16.708Z,10.86
2018-09-01T03:27:16.608Z,10.93
2018-09-01T03:28:16.498Z,10.89
2018-09-01T03:29:16.394Z,10.92
2018-09-01T03:30:16.290Z,10.93
2018-09-01T03:31:16.186Z,10.92
2018-09-01T03:32:16.099Z,10.99
2018-09-01T03:33:15.995Z,10.90
2018-09-01T03:34:15.890Z,10.90
2018-09-01T03:35:15.787Z,10.93
2018-09-01T03:36:15.687Z,10.78
2018-09-01T03:37:15.586Z,10.75
2018-09-01T03:38:15.483Z,10.82
2018-09-01T03:39:15.388Z,10.86
2018-09-01T03:40:15.284Z,10.92
2018-09-01T03:41:15.178Z,10.94
2018-09-01T03:42:15.082Z,10.94
2018-09-01T03:43:14.982Z,10.86
2018-09-01T03:44:14.870Z,10.93
2018-09-01T03:45:14.781Z,10.86
2018-09-01T03:46:14.685Z,10.93
2018-09-01T03:47:14.820Z,10.87
2018-09-01T03:48:14.471Z,10.74
2018-09-01T03:49:14.367Z,10.92
2018-09-01T03:50:14.262Z,10.87
2018-09-01T03:51:14.175Z,10.81
2018-09-01T03:52:14.072Z,10.79
2018-09-01T03:53:13.969Z,10.76
2018-09-01T03:54:13.864Z,10.79
2018-09-01T03:55:13.763Z,10.76
2018-09-01T03:56:13.653Z,10.75
2018-09-01T03:57:13.550Z,10.81
2018-09-01T03:58:13.462Z,10.75
2018-09-01T03:59:13.359Z,10.72
2018-09-01T04:00:13.266Z,10.76
2018-09-01T04:01:13.148Z,10.71
2018-09-01T04:02:13.047Z,10.81
2018-09-01T04:03:12.945Z,10.76
2018-09-01T04:04:12.862Z,10.76
2018-09-01T04:05:12.758Z,10.69
2018-09-01T04:06:12.645Z,10.76
2018-09-01T04:07:12.542Z,10.76
2018-09-01T04:08:12.443Z,10.72
2018-09-01T04:09:12.340Z,10.74
2018-09-01T04:10:12.240Z,10.74
2018-09-01T04:11:12.147Z,10.61
2018-09-01T04:12:12.039Z,10.67
2018-09-01T04:13:11.938Z,10.56
2018-09-01T04:14:11.837Z,10.51
2018-09-01T04:15:11.734Z,10.48
2018-09-01T04:16:11.628Z,10.63
2018-09-01T04:17:11.536Z,10.40
2018-09-01T04:18:11.430Z,10.53
2018-09-01T04:19:11.327Z,10.57
2018-09-01T04:20:11.228Z,10.60
2018-09-01T04:21:11.125Z,10.67
2018-09-01T04:22:11.023Z,10.64
2018-09-01T04:23:10.916Z,10.56
2018-09-01T04:24:10.828Z,10.60
2018-09-01T04:25:10.727Z,10.60
2018-09-01T04:26:10.637Z,10.68
2018-09-01T04:27:10.767Z,10.63
2018-09-01T04:28:10.412Z,10.59
2018-09-01T04:29:10.306Z,10.57
2018-09-01T04:30:10.209Z,10.75
2018-09-01T04:31:10.117Z,10.69
2018-09-01T04:32:10.088Z,10.68
2018-09-01T04:33:09.906Z,10.74
2018-09-01T04:34:09.806Z,10.75
2018-09-01T04:35:09.705Z,10.72
2018-09-01T04:36:09.604Z,10.75
2018-09-01T04:37:09.815Z,10.78
2018-09-01T04:38:09.402Z,10.78
2018-09-01T04:39:09.301Z,10.75
2018-09-01T04:40:09.199Z,10.82
2018-09-01T04:41:09.095Z,10.78
2018-09-01T04:42:09.000Z,10.82
2018-09-01T04:43:08.893Z,10.84
2018-09-01T04:44:08.803Z,10.90
2018-09-01T04:45:08.694Z,10.90
2018-09-01T04:46:08.591Z,11.07
2018-09-01T04:47:08.537Z,11.12
2018-09-01T04:48:08.389Z,11.30
2018-09-01T04:49:08.284Z,11.37
2018-09-01T04:50:08.193Z,11.41
2018-09-01T04:51:08.087Z,11.65
2018-09-01T04:52:07.980Z,11.69
2018-09-01T04:53:07.878Z,11.78
2018-09-01T04:54:07.781Z,11.88
2018-09-01T04:55:07.678Z,11.84
2018-09-01T04:56:07.583Z,12.07
2018-09-01T04:57:07.480Z,12.24
2018-09-01T04:58:07.374Z,12.27
2018-09-01T04:59:07.273Z,12.39
2018-09-01T05:00:07.190Z,12.36
2018-09-01T05:01:07.241Z,12.49
2018-09-01T05:02:06.973Z,12.49
2018-09-01T05:03:06.872Z,12.54
2018-09-01T05:04:06.771Z,12.62
2018-09-01T05:05:06.681Z,12.73
2018-09-01T05:06:06.581Z,12.91
2018-09-01T05:07:06.477Z,13.05
2018-09-01T05:08:06.367Z,13.28
2018-09-01T05:09:06.277Z,13.50
2018-09-01T05:10:06.175Z,13.54
2018-09-01T05:11:06.071Z,13.83
2018-09-01T05:12:05.965Z,13.81
2018-09-01T05:13:05.875Z,13.96
2018-09-01T05:14:05.775Z,14.08
2018-09-01T05:15:05.670Z,14.08
2018-09-01T05:16:05.570Z,14.17
2018-09-01T05:17:05.479Z,14.26
2018-09-01T05:18:05.372Z,14.32
2018-09-01T05:19:05.269Z,14.36
2018-09-01T05:20:05.182Z,14.55
2018-09-01T05:21:05.079Z,14.69
2018-09-01T05:22:04.973Z,14.88
2018-09-01T05:23:04.882Z,14.94
2018-09-01T05:24:04.822Z,14.97
2018-09-01T05:25:04.671Z,14.92
2018-09-01T05:26:04.575Z,14.94
2018-09-01T05:27:04.484Z,15.19
2018-09-01T05:28:04.376Z,15.27
2018-09-01T05:29:04.275Z,15.25
2018-09-01T05:30:04.180Z,15.24
2018-09-01T05:31:04.083Z,15.24
2018-09-01T05:32:03.991Z,15.29
2018-09-01T05:33:03.887Z,15.55
2018-09-01T05:34:03.781Z,15.65
2018-09-01T05:35:03.689Z,15.91
2018-09-01T05:36:03.590Z,16.08
2018-09-01T05:37:03.490Z,16.24
2018-09-01T05:38:03.403Z,16.57
2018-09-01T05:39:03.295Z,16.71
2018-09-01T05:40:03.198Z,16.93
2018-09-01T05:41:03.099Z,16.97
2018-09-01T05:42:02.994Z,17.20
2018-09-01T05:43:02.904Z,17.22
2018-09-01T05:44:02.841Z,17.44
2018-09-01T05:45:02.719Z,17.63
2018-09-01T05:46:02.604Z,17.83
2018-09-01T05:47:02.817Z,17.98
2018-09-01T05:48:02.415Z,18.07
2018-09-01T05:49:02.323Z,18.03
2018-09-01T05:50:02.213Z,18.15
2018-09-01T05:51:02.123Z,18.26
2018-09-01T05:52:02.027Z,18.44
2018-09-01T05:53:01.932Z,18.65
2018-09-01T05:54:01.831Z,18.50
2018-09-01T05:55:01.744Z,18.15
2018-09-01T05:56:01.635Z,18.04
2018-09-01T05:57:01.844Z,18.28
2018-09-01T05:58:01.441Z,18.62
2018-09-01T05:59:01.351Z,18.71
2018-09-01T06:00:01.244Z,18.84
2018-09-01T06:01:01.152Z,19.07
2018-09-01T06:02:01.052Z,19.14
2018-09-01T06:03:00.960Z,19.34
2018-09-01T06:04:00.874Z,19.40
2018-09-01T06:05:00.773Z,19.62
2018-09-01T06:06:00.727Z,19.86
2018-09-01T06:07:00.586Z,19.85
2018-09-01T06:08:00.485Z,19.79
2018-09-01T06:09:00.395Z,19.55
2018-09-01T06:10:00.289Z,19.33
2018-09-01T06:11:00.198Z,19.30
2018-09-01T06:12:00.105Z,19.56
2018-09-01T06:13:00.001Z,19.89
2018-09-01T06:13:59.915Z,19.95
2018-09-01T06:14:59.828Z,20.02
2018-09-01T06:15:59.717Z,20.14
2018-09-01T06:16:59.626Z,20.39
2018-09-01T06:17:59.596Z,20.44
2018-09-01T06:18:59.436Z,20.41
2018-09-01T06:19:59.343Z,20.10
2018-09-01T06:20:59.253Z,20.10
2018-09-01T06:21:59.146Z,20.24
2018-09-01T06:22:59.054Z,20.43
2018-09-01T06:23:59.018Z,20.78
2018-09-01T06:24:58.947Z,20.82
2018-09-01T06:25:58.776Z,20.74
2018-09-01T06:26:58.686Z,20.81
2018-09-01T06:27:58.603Z,20.88
2018-09-01T06:28:58.500Z,20.22
2018-09-01T06:29:58.451Z,20.16
2018-09-01T06:30:58.306Z,20.00
2018-09-01T06:31:58.213Z,19.54
2018-09-01T06:32:58.196Z,19.34
2018-09-01T06:33:58.022Z,19.41
2018-09-01T06:34:57.933Z,19.76
2018-09-01T06:35:57.843Z,19.81
2018-09-01T06:36:57.753Z,19.52
2018-09-01T06:37:57.645Z,19.56
2018-09-01T06:38:57.554Z,19.94
2018-09-01T06:39:57.468Z,20.14
2018-09-01T06:40:57.376Z,19.76
2018-09-01T06:41:57.271Z,19.73
2018-09-01T06:42:57.205Z,19.84
2018-09-01T06:43:57.085Z,20.13
2018-09-01T06:44:56.995Z,20.31
2018-09-01T06:45:56.909Z,20.43
2018-09-01T06:46:56.806Z,19.89
2018-09-01T06:47:56.711Z,19.30
2018-09-01T06:48:56.620Z,18.86
2018-09-01T06:49:56.530Z,18.45
2018-09-01T06:50:56.436Z,18.29
2018-09-01T06:51:56.337Z,18.08
2018-09-01T06:52:56.248Z,17.89
2018-09-01T06:53:56.156Z,17.63
2018-09-01T06:54:56.065Z,17.46
2018-09-01T06:55:55.959Z,17.41
2018-09-01T06:56:56.117Z,17.29
2018-09-01T06:57:55.779Z,17.12
2018-09-01T06:58:55.703Z,17.31
2018-09-01T06:59:55.589Z,17.94
2018-09-01T07:00:55.502Z,18.11
2018-09-01T07:01:55.403Z,18.45
2018-09-01T07:02:55.297Z,18.90
2018-09-01T07:03:55.211Z,18.99
2018-09-01T07:04:55.119Z,19.14
2018-09-01T07:05:55.019Z,19.56
2018-09-01T07:06:54.929Z,19.95
2018-09-01T07:07:54.832Z,20.25
2018-09-01T07:08:54.789Z,20.39
2018-09-01T07:09:54.644Z,20.51
2018-09-01T07:10:54.555Z,20.67
2018-09-01T07:11:54.483Z,20.84
2018-09-01T07:12:54.368Z,20.88
2018-09-01T07:13:54.261Z,20.90
2018-09-01T07:14:54.172Z,20.95
2018-09-01T07:15:54.085Z,20.87
2018-09-01T07:16:53.993Z,20.77
2018-09-01T07:17:53.887Z,20.40
2018-09-01T07:18:53.795Z,20.10
2018-09-01T07:19:53.711Z,19.31
2018-09-01T07:20:53.631Z,19.19
2018-09-01T07:21:53.514Z,18.83
2018-09-01T07:22:53.423Z,18.75
2018-09-01T07:23:53.327Z,18.38
2018-09-01T07:24:53.237Z,18.35
2018-09-01T07:25:53.151Z,18.35
2018-09-01T07:26:53.046Z,18.37
2018-09-01T07:27:52.952Z,18.33
2018-09-01T07:28:52.861Z,18.28
2018-09-01T07:29:52.773Z,18.20
2018-09-01T07:30:52.929Z,18.38
2018-09-01T07:31:52.582Z,18.33
2018-09-01T07:32:52.492Z,18.35
2018-09-01T07:33:52.383Z,18.45
2018-09-01T07:34:52.291Z,18.49
2018-09-01T07:35:52.205Z,18.56
2018-09-01T07:36:52.118Z,18.73
2018-09-01T07:37:52.014Z,18.70
2018-09-01T07:38:51.927Z,18.65
2018-09-01T07:39:51.826Z,18.62
2018-09-01T07:40:51.724Z,18.63
2018-09-01T07:41:51.642Z,18.71
2018-09-01T07:42:51.546Z,18.62
2018-09-01T07:43:51.439Z,18.75
2018-09-01T07:44:51.352Z,18.73
2018-09-01T07:45:51.259Z,18.77
2018-09-01T07:46:51.151Z,18.75
2018-09-01T07:47:51.069Z,18.89
2018-09-01T07:48:50.974Z,18.96
2018-09-01T07:49:50.875Z,18.83
2018-09-01T07:50:50.779Z,18.75
2018-09-01T07:51:50.692Z,18.68
2018-09-01T07:52:50.588Z,18.65
2018-09-01T07:53:50.500Z,18.63
2018-09-01T07:54:50.404Z,18.56
2018-09-01T07:55:50.299Z,18.75
2018-09-01T07:56:50.207Z,18.66
2018-09-01T07:57:50.110Z,18.70
2018-09-01T07:58:50.022Z,18.89
2018-09-01T07:59:49.923Z,18.92
2018-09-01T08:00:49.821Z,19.02
2018-09-01T08:01:49.727Z,19.14
2018-09-01T08:02:49.636Z,19.18
2018-09-01T08:03:49.541Z,19.16
2018-09-01T08:04:49.446Z,19.40
2018-09-01T08:05:49.341Z,19.52
2018-09-01T08:06:49.251Z,19.66
2018-09-01T08:07:49.166Z,19.71
2018-09-01T08:08:49.073Z,19.67
2018-09-01T08:09:48.968Z,19.77
2018-09-01T08:10:48.876Z,19.69
2018-09-01T08:11:48.771Z,19.77
2018-09-01T08:12:48.679Z,19.56
2018-09-01T08:13:48.627Z,19.48
2018-09-01T08:14:48.489Z,19.48
2018-09-01T08:15:48.394Z,19.51
2018-09-01T08:16:48.291Z,19.30
2018-09-01T08:17:48.201Z,19.29
2018-09-01T08:18:48.100Z,19.15
2018-09-01T08:19:48.012Z,19.30
2018-09-01T08:20:47.920Z,19.15
2018-09-01T08:21:48.061Z,19.19
2018-09-01T08:22:47.720Z,19.29
2018-09-01T08:23:47.634Z,19.36
2018-09-01T08:24:47.530Z,19.33
2018-09-01T08:25:47.441Z,19.40
2018-09-01T08:26:47.340Z,19.26
2018-09-01T08:27:47.243Z,19.34
2018-09-01T08:28:47.153Z,19.47
2018-09-01T08:29:47.054Z,19.52
2018-09-01T08:30:46.961Z,19.52
2018-09-01T08:31:46.855Z,19.49
2018-09-01T08:32:46.765Z,19.51
2018-09-01T08:33:46.756Z,19.67
2018-09-01T08:34:46.567Z,19.67
2018-09-01T08:35:46.483Z,19.70
2018-09-01T08:36:46.378Z,19.73
2018-09-01T08:37:46.285Z,19.70
2018-09-01T08:38:46.194Z,19.84
2018-09-01T08:39:46.096Z,19.85
2018-09-01T08:40:46.007Z,20.06
2018-09-01T08:41:45.899Z,20.07
2018-09-01T08:42:45.808Z,19.94
2018-09-01T08:43:45.712Z,19.91
2018-09-01T08:44:45.609Z,19.88
2018-09-01T08:45:45.524Z,19.96
2018-09-01T08:46:45.431Z,20.04
2018-09-01T08:47:45.326Z,19.99
2018-09-01T08:48:45.236Z,20.04
2018-09-01T08:49:45.132Z,20.03
2018-09-01T08:50:45.041Z,20.04
2018-09-01T08:51:44.955Z,20.03
2018-09-01T08:52:44.853Z,20.09
2018-09-01T08:53:44.754Z,20.19
2018-09-01T08:54:44.653Z,20.18
2018-09-01T08:55:44.566Z,20.22
2018-09-01T08:56:44.810Z,20.32
2018-09-01T08:57:44.372Z,20.29
2018-09-01T08:58:44.282Z,20.26
2018-09-01T08:59:44.183Z,20.40
2018-09-01T09:00:44.084Z,20.37
2018-09-01T09:01:43.995Z,20.34
2018-09-01T09:02:43.892Z,20.43
2018-09-01T09:03:43.797Z,20.52
2018-09-01T09:04:43.695Z,20.65
2018-09-01T09:05:43.661Z,20.60
2018-09-01T09:06:43.514Z,20.65
2018-09-01T09:07:43.416Z,20.74
2018-09-01T09:08:43.324Z,20.78
2018-09-01T09:09:43.226Z,20.70
2018-09-01T09:10:43.137Z,20.70
2018-09-01T09:11:43.097Z,20.72
2018-09-01T09:12:42.949Z,20.70
2018-09-01T09:13:42.848Z,20.78
2018-09-01T09:14:42.754Z,20.74
2018-09-01T09:15:42.649Z,20.65
2018-09-01T09:16:42.555Z,20.60
2018-09-01T09:17:42.470Z,20.59
2018-09-01T09:18:42.474Z,20.37
2018-09-01T09:19:42.276Z,20.28
2018-09-01T09:20:42.180Z,20.44
2018-09-01T09:21:42.075Z,20.74
2018-09-01T09:22:41.984Z,20.88
2018-09-01T09:23:41.886Z,20.95
2018-09-01T09:24:41.794Z,21.17
2018-09-01T09:25:41.700Z,21.25
2018-09-01T09:26:41.597Z,21.45
2018-09-01T09:27:41.512Z,21.40
2018-09-01T09:28:41.419Z,21.45
2018-09-01T09:29:41.320Z,21.45
2018-09-01T09:30:41.224Z,21.48
2018-09-01T09:31:41.130Z,21.66
2018-09-01T09:32:41.025Z,21.98
2018-09-01T09:33:40.939Z,22.44
2018-09-01T09:34:40.958Z,23.12
2018-09-01T09:35:40.740Z,23.24
2018-09-01T09:36:40.905Z,23.44
2018-09-01T09:37:40.560Z,22.90
2018-09-01T09:38:40.457Z,22.48
2018-09-01T09:39:40.371Z,22.75
2018-09-01T09:40:40.280Z,23.28
2018-09-01T09:41:40.173Z,23.41
2018-09-01T09:42:40.081Z,23.28
2018-09-01T09:43:39.993Z,23.56
2018-09-01T09:44:39.902Z,23.15
2018-09-01T09:45:39.802Z,24.06
2018-09-01T09:46:39.710Z,23.93
2018-09-01T09:47:39.616Z,23.54
2018-09-01T09:48:39.525Z,23.24
2018-09-01T09:49:39.439Z,23.54
2018-09-01T09:50:39.346Z,23.62
2018-09-01T09:51:39.241Z,23.81
2018-09-01T09:52:39.149Z,23.98
2018-09-01T09:53:39.056Z,23.87
2018-09-01T09:54:38.966Z,23.62
2018-09-01T09:55:38.878Z,23.24
2018-09-01T09:56:38.777Z,23.17
2018-09-01T09:57:38.683Z,23.28
2018-09-01T09:58:38.595Z,23.39
2018-09-01T09:59:38.505Z,23.23
2018-09-01T10:00:38.414Z,23.34
2018-09-01T10:01:38.329Z,22.99
2018-09-01T10:02:38.230Z,22.83
2018-09-01T10:03:38.137Z,22.75
2018-09-01T10:04:38.032Z,22.55
2018-09-01T10:05:38.021Z,22.38
2018-09-01T10:06:37.858Z,22.22
2018-09-01T10:07:37.762Z,22.07
2018-09-01T10:08:37.671Z,22.30
2018-09-01T10:09:37.580Z,22.53
2018-09-01T10:10:37.489Z,22.80
2018-09-01T10:11:37.389Z,22.85
2018-09-01T10:12:37.298Z,22.94
2018-09-01T10:13:37.205Z,22.88
2018-09-01T10:14:37.114Z,23.09
2018-09-01T10:15:37.028Z,23.12
2018-09-01T10:16:36.936Z,23.28
2018-09-01T10:17:36.834Z,23.08
2018-09-01T10:18:36.746Z,22.85
2018-09-01T10:19:36.645Z,22.72
2018-09-01T10:20:36.560Z,22.50
2018-09-01T10:21:36.721Z,22.43
2018-09-01T10:22:36.378Z,22.26
2018-09-01T10:23:36.271Z,22.38
2018-09-01T10:24:36.179Z,22.44
2018-09-01T10:25:36.092Z,22.35
2018-09-01T10:26:36.012Z,22.23
2018-09-01T10:27:35.912Z,22.29
2018-09-01T10:28:35.821Z,22.39
2018-09-01T10:29:35.713Z,22.45
2018-09-01T10:30:35.624Z,22.55
2018-09-01T10:31:35.548Z,22.65
2018-09-01T10:32:35.445Z,22.72
2018-09-01T10:33:35.355Z,22.80
2018-09-01T10:34:35.253Z,22.98
2018-09-01T10:35:35.157Z,22.76
2018-09-01T10:36:35.066Z,22.78
2018-09-01T10:37:34.980Z,22.87
2018-09-01T10:38:34.943Z,22.94
2018-09-01T10:39:34.782Z,22.88
2018-09-01T10:40:34.690Z,22.81
2018-09-01T10:41:34.597Z,23.03
2018-09-01T10:42:34.506Z,23.06
2018-09-01T10:43:34.419Z,23.20
2018-09-01T10:44:34.319Z,23.44
2018-09-01T10:45:34.225Z,23.68
2018-09-01T10:46:34.132Z,23.73
2018-09-01T10:47:34.047Z,23.73
2018-09-01T10:48:33.954Z,23.83
2018-09-01T10:49:33.863Z,23.87
2018-09-01T10:50:33.760Z,23.86
2018-09-01T10:51:33.666Z,23.76
2018-09-01T10:52:33.576Z,23.58
2018-09-01T10:53:33.500Z,23.51
2018-09-01T10:54:33.397Z,23.66
2018-09-01T10:55:33.300Z,23.40
2018-09-01T10:56:33.198Z,23.36
2018-09-01T10:57:33.109Z,23.66
2018-09-01T10:58:33.019Z,23.54
2018-09-01T10:59:33.077Z,23.65
2018-09-01T11:00:32.840Z,23.66
2018-09-01T11:01:32.995Z,23.41
2018-09-01T11:02:32.640Z,23.43
2018-09-01T11:03:32.553Z,23.55
2018-09-01T11:04:32.464Z,23.68
2018-09-01T11:05:32.391Z,23.78
2018-09-01T11:06:32.283Z,23.73
2018-09-01T11:07:32.187Z,23.54
2018-09-01T11:08:32.087Z,23.54
2018-09-01T11:09:31.996Z,23.43
2018-09-01T11:10:31.903Z,23.43
2018-09-01T11:11:31.821Z,23.47
2018-09-01T11:12:31.725Z,23.36
2018-09-01T11:13:31.633Z,23.48
2018-09-01T11:14:31.543Z,23.43
2018-09-01T11:15:31.435Z,23.25
2018-09-01T11:16:31.344Z,23.65
2018-09-01T11:17:31.306Z,23.91
2018-09-01T11:18:31.169Z,23.91
2018-09-01T11:19:31.073Z,23.86
2018-09-01T11:20:30.984Z,23.74
2018-09-01T11:21:30.890Z,23.47
2018-09-01T11:22:30.787Z,23.39
2018-09-01T11:23:30.700Z,23.61
2018-09-01T11:24:30.622Z,23.84
2018-09-01T11:25:30.514Z,24.17
2018-09-01T11:26:30.423Z,24.50
2018-09-01T11:27:30.381Z,24.48
2018-09-01T11:28:30.246Z,24.42
2018-09-01T11:29:30.157Z,24.54
2018-09-01T11:30:30.066Z,24.74
2018-09-01T11:31:29.959Z,24.61
2018-09-01T11:32:29.868Z,24.89
2018-09-01T11:33:29.783Z,24.73
2018-09-01T11:34:29.690Z,24.70
2018-09-01T11:35:29.595Z,24.57
2018-09-01T11:36:29.506Z,24.45
2018-09-01T11:37:29.414Z,24.50
2018-09-01T11:38:29.324Z,24.70
2018-09-01T11:39:29.235Z,24.84
2018-09-01T11:40:29.147Z,24.73
2018-09-01T11:41:29.050Z,24.85
2018-09-01T11:42:29.023Z,24.76
2018-09-01T11:43:28.873Z,24.65
2018-09-01T11:44:28.769Z,24.29
2018-09-01T11:45:28.677Z,24.58
2018-09-01T11:46:28.589Z,24.74
2018-09-01T11:47:28.491Z,24.53
2018-09-01T11:48:28.400Z,24.40
2018-09-01T11:49:28.317Z,24.45
2018-09-01T11:50:28.225Z,24.54
2018-09-01T11:51:28.130Z,24.54
2018-09-01T11:52:28.039Z,24.91
2018-09-01T11:53:27.993Z,24.99
2018-09-01T11:54:27.868Z,25.26
2018-09-01T11:55:27.783Z,25.14
2018-09-01T11:56:27.679Z,25.22
2018-09-01T11:57:27.584Z,25.31
2018-09-01T11:58:27.527Z,25.44
2018-09-01T11:59:27.414Z,25.38
2018-09-01T12:00:27.305Z,25.06
2018-09-01T12:01:27.215Z,24.85
2018-09-01T12:02:27.125Z,24.89
2018-09-01T12:03:27.040Z,25.03
2018-09-01T12:04:26.938Z,25.03
2018-09-01T12:05:26.848Z,24.81
2018-09-01T12:06:26.759Z,24.76
2018-09-01T12:07:26.662Z,24.73
2018-09-01T12:08:26.572Z,24.68
2018-09-01T12:09:26.569Z,24.73
2018-09-01T12:10:26.393Z,24.88
2018-09-01T12:11:26.306Z,24.70
2018-09-01T12:12:26.216Z,24.70
2018-09-01T12:13:26.117Z,24.55
2018-09-01T12:14:26.027Z,24.58
2018-09-01T12:15:25.941Z,24.73
2018-09-01T12:16:25.850Z,24.50
2018-09-01T12:17:25.760Z,24.58
2018-09-01T12:18:25.671Z,24.74
2018-09-01T12:19:25.576Z,24.66
2018-09-01T12:20:25.487Z,24.66
2018-09-01T12:21:25.395Z,24.70
2018-09-01T12:22:25.375Z,25.18
2018-09-01T12:23:25.210Z,25.26
2018-09-01T12:24:25.119Z,25.17
2018-09-01T12:25:25.031Z,25.35
2018-09-01T12:26:24.940Z,25.31
2018-09-01T12:27:24.853Z,25.26
2018-09-01T12:28:24.869Z,25.35
2018-09-01T12:29:24.667Z,25.17
2018-09-01T12:30:24.577Z,25.07
2018-09-01T12:31:24.490Z,24.85
2018-09-01T12:32:24.399Z,24.76
2018-09-01T12:33:24.305Z,24.60
2018-09-01T12:34:24.217Z,24.50
2018-09-01T12:35:24.153Z,24.47
2018-09-01T12:36:24.065Z,24.50
2018-09-01T12:37:23.958Z,24.70
2018-09-01T12:38:23.855Z,24.73
2018-09-01T12:39:23.759Z,24.89
2018-09-01T12:40:23.658Z,24.76
2018-09-01T12:41:23.827Z,24.74
2018-09-01T12:42:23.473Z,24.76
2018-09-01T12:43:23.386Z,24.73
2018-09-01T12:44:23.295Z,24.73
2018-09-01T12:45:23.199Z,24.88
2018-09-01T12:46:23.108Z,25.06
2018-09-01T12:47:23.023Z,24.99
2018-09-01T12:48:22.931Z,24.99
2018-09-01T12:49:22.843Z,25.13
2018-09-01T12:50:22.753Z,25.21
2018-09-01T12:51:22.657Z,25.22